sensor_id;sensor_type;location;lat;lon;timestamp;pressure;altitude;pressure_sealevel;temperature;humidity
36972;BME280;40554;52.122;20.678;2023-01-31T00:00:40;99245.40;;;1.66;100.00
36972;BME280;40554;52.122;20.678;2023-01-31T00:02:56;99244.15;;;1.67;100.00
36972;BME280;40554;52.122;20.678;2023-01-31T00:05:12;99242.04;;;1.67;100.00
36972;BME280;40554;52.122;20.678;2023-01-31T00:07:28;99245.15;;;1.68;100.00
36972;BME280;40554;52.122;20.678;2023-01-31T00:09:44;99246.52;;;1.69;100.00
36972;BME280;40554;52.122;20.678;2023-01-31T00:12:01;99247.49;;;1.70;100.00
36972;BME280;40554;52.122;20.678;2023-01-31T00:14:18;99249.00;;;1.71;100.00
36972;BME280;40554;52.122;20.678;2023-01-31T00:16:35;99255.79;;;1.71;100.00
36972;BME280;40554;52.122;20.678;2023-01-31T00:18:52;99262.39;;;1.71;100.00
36972;BME280;40554;52.122;20.678;2023-01-31T00:21:14;99260.10;;;1.72;100.00
36972;BME280;40554;52.122;20.678;2023-01-31T00:23:30;99261.46;;;1.73;100.00
36972;BME280;40554;52.122;20.678;2023-01-31T00:25:47;99258.61;;;1.74;100.00
36972;BME280;40554;52.122;20.678;2023-01-31T00:28:03;99261.52;;;1.75;100.00
36972;BME280;40554;52.122;20.678;2023-01-31T00:30:19;99261.98;;;1.76;100.00
36972;BME280;40554;52.122;20.678;2023-01-31T00:32:36;99266.15;;;1.76;100.00
36972;BME280;40554;52.122;20.678;2023-01-31T00:34:53;99271.52;;;1.77;100.00
36972;BME280;40554;52.122;20.678;2023-01-31T00:37:09;99270.98;;;1.77;100.00
36972;BME280;40554;52.122;20.678;2023-01-31T00:39:25;99275.27;;;1.78;100.00
36972;BME280;40554;52.122;20.678;2023-01-31T00:41:42;99279.59;;;1.79;100.00
36972;BME280;40554;52.122;20.678;2023-01-31T00:43:58;99282.70;;;1.80;100.00
36972;BME280;40554;52.122;20.678;2023-01-31T00:46:15;99289.77;;;1.81;100.00
36972;BME280;40554;52.122;20.678;2023-01-31T00:48:32;99294.98;;;1.82;100.00
36972;BME280;40554;52.122;20.678;2023-01-31T00:50:49;99296.92;;;1.81;100.00
36972;BME280;40554;52.122;20.678;2023-01-31T00:53:05;99297.27;;;1.81;100.00
36972;BME280;40554;52.122;20.678;2023-01-31T00:55:22;99299.02;;;1.81;100.00
36972;BME280;40554;52.122;20.678;2023-01-31T00:57:38;99294.32;;;1.81;100.00
36972;BME280;40554;52.122;20.678;2023-01-31T00:59:54;99298.82;;;1.82;100.00
36972;BME280;40554;52.122;20.678;2023-01-31T01:02:10;99311.23;;;1.81;100.00
36972;BME280;40554;52.122;20.678;2023-01-31T01:04:27;99310.77;;;1.80;100.00
36972;BME280;40554;52.122;20.678;2023-01-31T01:06:43;99314.92;;;1.80;100.00
36972;BME280;40554;52.122;20.678;2023-01-31T01:08:59;99317.84;;;1.81;100.00
36972;BME280;40554;52.122;20.678;2023-01-31T01:11:18;99322.87;;;1.82;100.00
36972;BME280;40554;52.122;20.678;2023-01-31T01:13:35;99322.52;;;1.82;100.00
36972;BME280;40554;52.122;20.678;2023-01-31T01:15:53;99325.85;;;1.81;100.00
36972;BME280;40554;52.122;20.678;2023-01-31T01:18:10;99328.97;;;1.82;100.00
36972;BME280;40554;52.122;20.678;2023-01-31T01:20:27;99327.23;;;1.82;100.00
36972;BME280;40554;52.122;20.678;2023-01-31T01:22:43;99325.83;;;1.82;100.00
36972;BME280;40554;52.122;20.678;2023-01-31T01:24:59;99325.13;;;1.82;100.00
36972;BME280;40554;52.122;20.678;2023-01-31T01:27:15;99324.45;;;1.82;100.00
36972;BME280;40554;52.122;20.678;2023-01-31T01:29:32;99325.14;;;1.82;100.00
36972;BME280;40554;52.122;20.678;2023-01-31T01:31:48;99328.85;;;1.81;100.00
36972;BME280;40554;52.122;20.678;2023-01-31T01:34:13;99327.64;;;1.81;100.00
36972;BME280;40554;52.122;20.678;2023-01-31T01:36:32;99330.96;;;1.80;100.00
36972;BME280;40554;52.122;20.678;2023-01-31T01:38:51;99338.45;;;1.80;100.00
36972;BME280;40554;52.122;20.678;2023-01-31T01:41:08;99339.16;;;1.80;100.00
36972;BME280;40554;52.122;20.678;2023-01-31T01:46:08;99347.34;;;1.80;100.00
36972;BME280;40554;52.122;20.678;2023-01-31T01:48:26;99349.00;;;1.82;100.00
36972;BME280;40554;52.122;20.678;2023-01-31T01:50:47;99347.79;;;1.82;100.00
36972;BME280;40554;52.122;20.678;2023-01-31T01:53:19;99350.20;;;1.83;100.00
36972;BME280;40554;52.122;20.678;2023-01-31T01:55:38;99357.15;;;1.83;100.00
36972;BME280;40554;52.122;20.678;2023-01-31T01:58:22;99360.45;;;1.83;100.00
36972;BME280;40554;52.122;20.678;2023-01-31T02:00:37;99359.23;;;1.83;100.00
36972;BME280;40554;52.122;20.678;2023-01-31T02:02:56;99362.65;;;1.84;100.00
36972;BME280;40554;52.122;20.678;2023-01-31T02:05:16;99364.57;;;1.84;100.00
36972;BME280;40554;52.122;20.678;2023-01-31T02:07:35;99369.30;;;1.84;100.00
36972;BME280;40554;52.122;20.678;2023-01-31T02:12:20;99375.89;;;1.85;100.00
36972;BME280;40554;52.122;20.678;2023-01-31T02:14:36;99374.64;;;1.85;100.00
36972;BME280;40554;52.122;20.678;2023-01-31T02:16:52;99378.98;;;1.85;100.00
36972;BME280;40554;52.122;20.678;2023-01-31T02:19:21;99387.13;;;1.86;100.00
36972;BME280;40554;52.122;20.678;2023-01-31T02:22:06;99393.88;;;1.87;100.00
36972;BME280;40554;52.122;20.678;2023-01-31T02:45:21;99420.35;;;1.88;100.00
36972;BME280;40554;52.122;20.678;2023-01-31T02:50:28;99429.21;;;1.88;100.00
36972;BME280;40554;52.122;20.678;2023-01-31T02:52:52;99436.02;;;1.88;100.00
36972;BME280;40554;52.122;20.678;2023-01-31T02:55:31;99440.34;;;1.89;100.00
36972;BME280;40554;52.122;20.678;2023-01-31T02:58:10;99447.62;;;1.90;100.00
36972;BME280;40554;52.122;20.678;2023-01-31T03:00:29;99449.70;;;1.90;100.00
36972;BME280;40554;52.122;20.678;2023-01-31T03:02:47;99458.77;;;1.90;100.00
36972;BME280;40554;52.122;20.678;2023-01-31T03:05:03;99463.80;;;1.90;100.00
36972;BME280;40554;52.122;20.678;2023-01-31T03:07:23;99470.25;;;1.90;100.00
36972;BME280;40554;52.122;20.678;2023-01-31T03:12:32;99480.52;;;1.91;100.00
36972;BME280;40554;52.122;20.678;2023-01-31T03:20:12;99489.56;;;1.91;100.00
36972;BME280;40554;52.122;20.678;2023-01-31T03:22:37;99495.14;;;1.91;100.00
36972;BME280;40554;52.122;20.678;2023-01-31T03:24:55;99502.24;;;1.92;100.00
36972;BME280;40554;52.122;20.678;2023-01-31T03:27:12;99504.54;;;1.91;100.00
36972;BME280;40554;52.122;20.678;2023-01-31T03:29:33;99507.35;;;1.91;100.00
36972;BME280;40554;52.122;20.678;2023-01-31T03:32:01;99511.89;;;1.91;100.00
36972;BME280;40554;52.122;20.678;2023-01-31T03:34:19;99520.05;;;1.91;100.00
36972;BME280;40554;52.122;20.678;2023-01-31T03:36:55;99520.27;;;1.91;100.00
36972;BME280;40554;52.122;20.678;2023-01-31T03:42:06;99527.05;;;1.91;100.00
36972;BME280;40554;52.122;20.678;2023-01-31T03:44:29;99525.65;;;1.91;100.00
36972;BME280;40554;52.122;20.678;2023-01-31T03:46:50;99523.08;;;1.90;100.00
36972;BME280;40554;52.122;20.678;2023-01-31T03:49:09;99526.91;;;1.90;100.00
36972;BME280;40554;52.122;20.678;2023-01-31T03:51:30;99528.66;;;1.90;100.00
36972;BME280;40554;52.122;20.678;2023-01-31T03:53:53;99533.04;;;1.89;100.00
36972;BME280;40554;52.122;20.678;2023-01-31T03:58:42;99530.52;;;1.87;100.00
36972;BME280;40554;52.122;20.678;2023-01-31T04:01:01;99532.78;;;1.87;100.00
36972;BME280;40554;52.122;20.678;2023-01-31T04:04:14;99538.27;;;1.86;100.00
36972;BME280;40554;52.122;20.678;2023-01-31T04:06:22;99540.20;;;1.85;100.00
36972;BME280;40554;52.122;20.678;2023-01-31T04:08:39;99541.46;;;1.84;100.00
36972;BME280;40554;52.122;20.678;2023-01-31T04:10:57;99547.11;;;1.83;100.00
36972;BME280;40554;52.122;20.678;2023-01-31T04:13:14;99545.92;;;1.82;100.00
36972;BME280;40554;52.122;20.678;2023-01-31T04:15:30;99548.23;;;1.82;100.00
36972;BME280;40554;52.122;20.678;2023-01-31T04:17:46;99550.64;;;1.82;100.00
36972;BME280;40554;52.122;20.678;2023-01-31T04:20:04;99555.92;;;1.81;100.00
36972;BME280;40554;52.122;20.678;2023-01-31T04:22:21;99558.77;;;1.80;100.00
36972;BME280;40554;52.122;20.678;2023-01-31T04:24:37;99561.06;;;1.79;100.00
36972;BME280;40554;52.122;20.678;2023-01-31T04:26:53;99569.29;;;1.78;100.00
36972;BME280;40554;52.122;20.678;2023-01-31T04:29:09;99564.28;;;1.77;100.00
36972;BME280;40554;52.122;20.678;2023-01-31T04:31:26;99565.49;;;1.77;100.00
36972;BME280;40554;52.122;20.678;2023-01-31T04:33:42;99569.72;;;1.76;100.00
36972;BME280;40554;52.122;20.678;2023-01-31T04:35:59;99573.20;;;1.76;100.00
36972;BME280;40554;52.122;20.678;2023-01-31T04:38:16;99572.15;;;1.76;100.00
36972;BME280;40554;52.122;20.678;2023-01-31T04:40:32;99575.30;;;1.76;100.00
36972;BME280;40554;52.122;20.678;2023-01-31T04:42:49;99574.30;;;1.75;100.00
36972;BME280;40554;52.122;20.678;2023-01-31T04:45:06;99583.03;;;1.75;100.00
36972;BME280;40554;52.122;20.678;2023-01-31T04:47:23;99586.51;;;1.75;100.00
36972;BME280;40554;52.122;20.678;2023-01-31T04:49:39;99590.19;;;1.75;100.00
36972;BME280;40554;52.122;20.678;2023-01-31T04:51:56;99594.91;;;1.74;100.00
36972;BME280;40554;52.122;20.678;2023-01-31T04:54:12;99599.27;;;1.74;100.00
36972;BME280;40554;52.122;20.678;2023-01-31T04:56:28;99600.86;;;1.74;100.00
36972;BME280;40554;52.122;20.678;2023-01-31T04:58:45;99608.52;;;1.74;100.00
36972;BME280;40554;52.122;20.678;2023-01-31T05:01:01;99612.36;;;1.74;100.00
36972;BME280;40554;52.122;20.678;2023-01-31T05:03:17;99616.20;;;1.74;100.00
36972;BME280;40554;52.122;20.678;2023-01-31T05:05:33;99621.38;;;1.74;100.00
36972;BME280;40554;52.122;20.678;2023-01-31T05:07:51;99628.56;;;1.74;100.00
36972;BME280;40554;52.122;20.678;2023-01-31T05:10:08;99627.70;;;1.74;100.00
36972;BME280;40554;52.122;20.678;2023-01-31T05:12:25;99632.91;;;1.74;100.00
36972;BME280;40554;52.122;20.678;2023-01-31T05:14:43;99635.89;;;1.73;100.00
36972;BME280;40554;52.122;20.678;2023-01-31T05:16:59;99644.77;;;1.73;100.00
36972;BME280;40554;52.122;20.678;2023-01-31T05:19:16;99645.13;;;1.73;100.00
36972;BME280;40554;52.122;20.678;2023-01-31T05:21:32;99648.48;;;1.72;100.00
36972;BME280;40554;52.122;20.678;2023-01-31T05:24:08;99659.63;;;1.73;100.00
36972;BME280;40554;52.122;20.678;2023-01-31T05:26:24;99654.41;;;1.72;100.00
36972;BME280;40554;52.122;20.678;2023-01-31T05:28:41;99664.15;;;1.73;100.00
36972;BME280;40554;52.122;20.678;2023-01-31T05:31:03;99664.70;;;1.72;100.00
36972;BME280;40554;52.122;20.678;2023-01-31T05:33:20;99672.02;;;1.72;100.00
36972;BME280;40554;52.122;20.678;2023-01-31T05:35:36;99674.48;;;1.71;100.00
36972;BME280;40554;52.122;20.678;2023-01-31T05:37:54;99683.02;;;1.72;100.00
36972;BME280;40554;52.122;20.678;2023-01-31T05:40:12;99684.77;;;1.72;100.00
36972;BME280;40554;52.122;20.678;2023-01-31T05:42:29;99684.58;;;1.72;100.00
36972;BME280;40554;52.122;20.678;2023-01-31T05:44:46;99695.41;;;1.71;100.00
36972;BME280;40554;52.122;20.678;2023-01-31T05:47:03;99694.55;;;1.71;100.00
36972;BME280;40554;52.122;20.678;2023-01-31T05:49:24;99695.45;;;1.70;100.00
36972;BME280;40554;52.122;20.678;2023-01-31T05:51:52;99694.05;;;1.71;100.00
36972;BME280;40554;52.122;20.678;2023-01-31T05:54:10;99699.42;;;1.71;100.00
36972;BME280;40554;52.122;20.678;2023-01-31T05:56:27;99701.89;;;1.70;100.00
36972;BME280;40554;52.122;20.678;2023-01-31T05:58:43;99708.20;;;1.70;100.00
36972;BME280;40554;52.122;20.678;2023-01-31T06:01:03;99706.98;;;1.70;100.00
36972;BME280;40554;52.122;20.678;2023-01-31T06:03:19;99713.22;;;1.70;100.00
36972;BME280;40554;52.122;20.678;2023-01-31T06:05:35;99716.05;;;1.69;100.00
36972;BME280;40554;52.122;20.678;2023-01-31T06:07:51;99719.75;;;1.68;100.00
36972;BME280;40554;52.122;20.678;2023-01-31T06:10:09;99721.34;;;1.68;100.00
36972;BME280;40554;52.122;20.678;2023-01-31T06:12:28;99727.81;;;1.68;100.00
36972;BME280;40554;52.122;20.678;2023-01-31T06:14:44;99733.56;;;1.67;100.00
36972;BME280;40554;52.122;20.678;2023-01-31T06:17:01;99735.34;;;1.67;100.00
36972;BME280;40554;52.122;20.678;2023-01-31T06:19:17;99743.35;;;1.67;100.00
36972;BME280;40554;52.122;20.678;2023-01-31T06:21:33;99750.33;;;1.67;100.00
36972;BME280;40554;52.122;20.678;2023-01-31T06:23:50;99755.74;;;1.66;100.00
36972;BME280;40554;52.122;20.678;2023-01-31T06:26:06;99754.23;;;1.65;100.00
36972;BME280;40554;52.122;20.678;2023-01-31T06:28:22;99757.21;;;1.64;100.00
36972;BME280;40554;52.122;20.678;2023-01-31T06:30:38;99758.10;;;1.64;100.00
36972;BME280;40554;52.122;20.678;2023-01-31T06:32:55;99761.61;;;1.64;100.00
36972;BME280;40554;52.122;20.678;2023-01-31T06:35:11;99767.37;;;1.63;100.00
36972;BME280;40554;52.122;20.678;2023-01-31T06:37:28;99770.52;;;1.63;100.00
36972;BME280;40554;52.122;20.678;2023-01-31T06:39:44;99774.72;;;1.62;100.00
36972;BME280;40554;52.122;20.678;2023-01-31T06:42:00;99774.06;;;1.62;100.00
36972;BME280;40554;52.122;20.678;2023-01-31T06:44:16;99777.59;;;1.60;100.00
36972;BME280;40554;52.122;20.678;2023-01-31T06:46:33;99776.05;;;1.60;100.00
36972;BME280;40554;52.122;20.678;2023-01-31T06:48:50;99780.40;;;1.60;100.00
36972;BME280;40554;52.122;20.678;2023-01-31T06:51:06;99787.88;;;1.60;100.00
36972;BME280;40554;52.122;20.678;2023-01-31T06:53:22;99792.77;;;1.60;100.00
36972;BME280;40554;52.122;20.678;2023-01-31T06:55:38;99799.02;;;1.61;100.00
36972;BME280;40554;52.122;20.678;2023-01-31T06:57:55;99804.92;;;1.61;100.00
36972;BME280;40554;52.122;20.678;2023-01-31T07:00:12;99806.84;;;1.61;100.00
36972;BME280;40554;52.122;20.678;2023-01-31T07:02:28;99809.25;;;1.62;100.00
36972;BME280;40554;52.122;20.678;2023-01-31T07:04:44;99809.55;;;1.63;100.00
36972;BME280;40554;52.122;20.678;2023-01-31T07:07:00;99812.63;;;1.64;100.00
36972;BME280;40554;52.122;20.678;2023-01-31T07:09:16;99816.41;;;1.65;100.00
36972;BME280;40554;52.122;20.678;2023-01-31T07:11:33;99820.35;;;1.67;100.00
36972;BME280;40554;52.122;20.678;2023-01-31T07:13:49;99826.77;;;1.68;100.00
36972;BME280;40554;52.122;20.678;2023-01-31T07:16:05;99830.02;;;1.70;100.00
36972;BME280;40554;52.122;20.678;2023-01-31T07:18:22;99823.19;;;1.70;100.00
36972;BME280;40554;52.122;20.678;2023-01-31T07:20:39;99828.33;;;1.72;100.00
36972;BME280;40554;52.122;20.678;2023-01-31T07:22:57;99836.49;;;1.73;100.00
36972;BME280;40554;52.122;20.678;2023-01-31T07:25:13;99840.48;;;1.73;100.00
36972;BME280;40554;52.122;20.678;2023-01-31T07:27:29;99843.08;;;1.74;100.00
36972;BME280;40554;52.122;20.678;2023-01-31T07:29:46;99848.30;;;1.74;100.00
36972;BME280;40554;52.122;20.678;2023-01-31T07:32:03;99850.73;;;1.74;100.00
36972;BME280;40554;52.122;20.678;2023-01-31T07:34:19;99856.94;;;1.76;100.00
36972;BME280;40554;52.122;20.678;2023-01-31T07:36:37;99861.64;;;1.76;100.00
36972;BME280;40554;52.122;20.678;2023-01-31T07:38:55;99861.11;;;1.76;100.00
36972;BME280;40554;52.122;20.678;2023-01-31T07:41:11;99870.13;;;1.77;100.00
36972;BME280;40554;52.122;20.678;2023-01-31T07:43:28;99876.17;;;1.78;100.00
36972;BME280;40554;52.122;20.678;2023-01-31T07:45:45;99878.48;;;1.77;100.00
36972;BME280;40554;52.122;20.678;2023-01-31T07:48:01;99883.03;;;1.77;100.00
36972;BME280;40554;52.122;20.678;2023-01-31T07:50:18;99888.41;;;1.78;100.00
36972;BME280;40554;52.122;20.678;2023-01-31T07:52:34;99889.83;;;1.77;100.00
36972;BME280;40554;52.122;20.678;2023-01-31T07:54:50;99894.92;;;1.76;100.00
36972;BME280;40554;52.122;20.678;2023-01-31T07:57:07;99897.17;;;1.76;100.00
36972;BME280;40554;52.122;20.678;2023-01-31T07:59:23;99903.79;;;1.77;100.00
36972;BME280;40554;52.122;20.678;2023-01-31T08:01:39;99904.42;;;1.78;100.00
36972;BME280;40554;52.122;20.678;2023-01-31T08:04:15;99908.33;;;1.81;100.00
36972;BME280;40554;52.122;20.678;2023-01-31T08:06:38;99911.79;;;1.82;100.00
36972;BME280;40554;52.122;20.678;2023-01-31T08:08:56;99914.29;;;1.84;100.00
36972;BME280;40554;52.122;20.678;2023-01-31T08:11:12;99915.92;;;1.87;100.00
36972;BME280;40554;52.122;20.678;2023-01-31T08:13:29;99921.41;;;1.89;100.00
36972;BME280;40554;52.122;20.678;2023-01-31T08:15:46;99921.52;;;1.91;100.00
36972;BME280;40554;52.122;20.678;2023-01-31T08:18:02;99928.23;;;1.93;100.00
36972;BME280;40554;52.122;20.678;2023-01-31T08:20:21;99922.95;;;1.94;100.00
36972;BME280;40554;52.122;20.678;2023-01-31T08:22:37;99925.98;;;1.97;100.00
36972;BME280;40554;52.122;20.678;2023-01-31T08:24:54;99923.63;;;1.99;100.00
36972;BME280;40554;52.122;20.678;2023-01-31T08:27:10;99925.95;;;2.03;100.00
36972;BME280;40554;52.122;20.678;2023-01-31T08:29:26;99927.02;;;2.10;100.00
36972;BME280;40554;52.122;20.678;2023-01-31T08:31:43;99925.18;;;2.17;100.00
36972;BME280;40554;52.122;20.678;2023-01-31T08:33:59;99930.56;;;2.22;100.00
36972;BME280;40554;52.122;20.678;2023-01-31T08:36:24;99933.91;;;2.25;100.00
36972;BME280;40554;52.122;20.678;2023-01-31T08:38:40;99933.98;;;2.28;100.00
36972;BME280;40554;52.122;20.678;2023-01-31T08:40:57;99937.14;;;2.27;100.00
36972;BME280;40554;52.122;20.678;2023-01-31T08:43:14;99934.52;;;2.27;100.00
36972;BME280;40554;52.122;20.678;2023-01-31T08:45:30;99940.09;;;2.28;100.00
36972;BME280;40554;52.122;20.678;2023-01-31T08:47:47;99943.93;;;2.28;100.00
36972;BME280;40554;52.122;20.678;2023-01-31T08:50:03;99949.16;;;2.28;100.00
36972;BME280;40554;52.122;20.678;2023-01-31T08:52:20;99946.21;;;2.27;100.00
36972;BME280;40554;52.122;20.678;2023-01-31T08:54:36;99950.85;;;2.25;100.00
36972;BME280;40554;52.122;20.678;2023-01-31T08:56:52;99946.34;;;2.24;100.00
36972;BME280;40554;52.122;20.678;2023-01-31T08:59:09;99948.83;;;2.23;100.00
36972;BME280;40554;52.122;20.678;2023-01-31T09:01:26;99950.63;;;2.22;100.00
36972;BME280;40554;52.122;20.678;2023-01-31T09:03:44;99953.84;;;2.20;100.00
36972;BME280;40554;52.122;20.678;2023-01-31T09:06:03;99949.31;;;2.20;100.00
36972;BME280;40554;52.122;20.678;2023-01-31T09:08:20;99953.80;;;2.21;100.00
36972;BME280;40554;52.122;20.678;2023-01-31T09:10:36;99954.78;;;2.22;100.00
36972;BME280;40554;52.122;20.678;2023-01-31T09:12:52;99954.23;;;2.23;100.00
36972;BME280;40554;52.122;20.678;2023-01-31T09:15:10;99956.95;;;2.25;100.00
36972;BME280;40554;52.122;20.678;2023-01-31T09:17:27;99961.62;;;2.26;100.00
36972;BME280;40554;52.122;20.678;2023-01-31T09:19:43;99958.31;;;2.26;100.00
36972;BME280;40554;52.122;20.678;2023-01-31T09:22:03;99961.09;;;2.26;100.00
36972;BME280;40554;52.122;20.678;2023-01-31T09:24:19;99959.18;;;2.26;100.00
36972;BME280;40554;52.122;20.678;2023-01-31T09:26:35;99964.16;;;2.28;100.00
36972;BME280;40554;52.122;20.678;2023-01-31T09:28:52;99966.52;;;2.30;100.00
36972;BME280;40554;52.122;20.678;2023-01-31T09:31:13;99966.98;;;2.31;100.00
36972;BME280;40554;52.122;20.678;2023-01-31T09:33:32;99971.06;;;2.34;100.00
36972;BME280;40554;52.122;20.678;2023-01-31T09:36:03;99972.58;;;2.35;100.00
36972;BME280;40554;52.122;20.678;2023-01-31T09:38:19;99977.52;;;2.38;100.00
36972;BME280;40554;52.122;20.678;2023-01-31T09:40:38;99980.73;;;2.40;100.00
36972;BME280;40554;52.122;20.678;2023-01-31T09:42:56;99986.41;;;2.42;100.00
36972;BME280;40554;52.122;20.678;2023-01-31T09:45:28;99979.66;;;2.46;100.00
36972;BME280;40554;52.122;20.678;2023-01-31T09:47:53;99988.39;;;2.50;100.00
36972;BME280;40554;52.122;20.678;2023-01-31T09:52:49;99992.98;;;2.52;100.00
36972;BME280;40554;52.122;20.678;2023-01-31T09:55:05;99992.62;;;2.53;100.00
36972;BME280;40554;52.122;20.678;2023-01-31T10:00:14;99994.09;;;2.59;100.00
36972;BME280;40554;52.122;20.678;2023-01-31T10:05:17;99988.58;;;2.66;100.00
36972;BME280;40554;52.122;20.678;2023-01-31T10:07:43;99986.55;;;2.68;100.00
36972;BME280;40554;52.122;20.678;2023-01-31T10:10:10;99987.23;;;2.70;100.00
36972;BME280;40554;52.122;20.678;2023-01-31T10:12:38;99990.45;;;2.71;100.00
36972;BME280;40554;52.122;20.678;2023-01-31T10:15:02;99990.77;;;2.76;100.00
36972;BME280;40554;52.122;20.678;2023-01-31T10:17:26;99988.81;;;2.81;100.00
36972;BME280;40554;52.122;20.678;2023-01-31T10:20:02;99990.16;;;2.86;100.00
36972;BME280;40554;52.122;20.678;2023-01-31T10:23:04;99989.26;;;2.91;100.00
36972;BME280;40554;52.122;20.678;2023-01-31T10:25:27;99986.88;;;2.98;100.00
36972;BME280;40554;52.122;20.678;2023-01-31T10:30:23;99981.71;;;3.04;100.00
36972;BME280;40554;52.122;20.678;2023-01-31T10:32:42;99976.96;;;3.05;100.00
36972;BME280;40554;52.122;20.678;2023-01-31T10:37:53;99973.55;;;3.15;100.00
36972;BME280;40554;52.122;20.678;2023-01-31T10:40:18;99969.75;;;3.18;100.00
36972;BME280;40554;52.122;20.678;2023-01-31T10:42:37;99970.62;;;3.22;100.00
36972;BME280;40554;52.122;20.678;2023-01-31T10:45:24;99971.05;;;3.24;100.00
36972;BME280;40554;52.122;20.678;2023-01-31T10:47:50;99970.14;;;3.25;100.00
36972;BME280;40554;52.122;20.678;2023-01-31T10:51:04;99972.61;;;3.24;100.00
36972;BME280;40554;52.122;20.678;2023-01-31T10:58:02;99976.04;;;3.33;100.00
36972;BME280;40554;52.122;20.678;2023-01-31T11:00:22;99975.68;;;3.33;100.00
36972;BME280;40554;52.122;20.678;2023-01-31T11:02:39;99971.98;;;3.30;100.00
36972;BME280;40554;52.122;20.678;2023-01-31T11:04:57;99978.68;;;3.29;100.00
36972;BME280;40554;52.122;20.678;2023-01-31T11:07:14;99974.92;;;3.27;100.00
36972;BME280;40554;52.122;20.678;2023-01-31T11:09:33;99980.53;;;3.27;100.00
36972;BME280;40554;52.122;20.678;2023-01-31T11:11:57;99980.20;;;3.26;100.00
36972;BME280;40554;52.122;20.678;2023-01-31T11:14:17;99980.75;;;3.25;100.00
36972;BME280;40554;52.122;20.678;2023-01-31T11:16:36;99977.09;;;3.25;100.00
36972;BME280;40554;52.122;20.678;2023-01-31T11:18:54;99977.61;;;3.25;100.00
36972;BME280;40554;52.122;20.678;2023-01-31T11:21:39;99973.41;;;3.25;100.00
36972;BME280;40554;52.122;20.678;2023-01-31T11:24:03;99976.10;;;3.24;100.00
36972;BME280;40554;52.122;20.678;2023-01-31T11:26:26;99975.46;;;3.23;100.00
36972;BME280;40554;52.122;20.678;2023-01-31T11:28:49;99982.04;;;3.24;100.00
36972;BME280;40554;52.122;20.678;2023-01-31T11:31:18;99973.92;;;3.26;100.00
36972;BME280;40554;52.122;20.678;2023-01-31T11:33:42;99977.59;;;3.26;100.00
36972;BME280;40554;52.122;20.678;2023-01-31T11:36:06;99981.64;;;3.25;100.00
36972;BME280;40554;52.122;20.678;2023-01-31T11:38:25;99977.60;;;3.26;100.00
36972;BME280;40554;52.122;20.678;2023-01-31T11:40:41;99977.39;;;3.27;100.00
36972;BME280;40554;52.122;20.678;2023-01-31T11:43:24;99975.41;;;3.28;100.00
36972;BME280;40554;52.122;20.678;2023-01-31T11:45:45;99977.06;;;3.30;100.00
36972;BME280;40554;52.122;20.678;2023-01-31T11:48:18;99979.40;;;3.32;100.00
36972;BME280;40554;52.122;20.678;2023-01-31T11:50:42;99971.79;;;3.35;100.00
36972;BME280;40554;52.122;20.678;2023-01-31T11:53:00;99973.92;;;3.38;100.00
36972;BME280;40554;52.122;20.678;2023-01-31T11:55:19;99970.52;;;3.47;100.00
36972;BME280;40554;52.122;20.678;2023-01-31T11:57:37;99970.55;;;3.54;100.00
36972;BME280;40554;52.122;20.678;2023-01-31T11:59:56;99967.03;;;3.58;100.00
36972;BME280;40554;52.122;20.678;2023-01-31T12:02:35;99963.46;;;3.60;100.00
36972;BME280;40554;52.122;20.678;2023-01-31T12:04:54;99957.66;;;3.61;100.00
36972;BME280;40554;52.122;20.678;2023-01-31T12:07:25;99953.48;;;3.61;100.00
36972;BME280;40554;52.122;20.678;2023-01-31T12:09:45;99949.21;;;3.58;100.00
36972;BME280;40554;52.122;20.678;2023-01-31T12:12:01;99948.89;;;3.58;100.00
36972;BME280;40554;52.122;20.678;2023-01-31T12:14:21;99945.79;;;3.57;100.00
36972;BME280;40554;52.122;20.678;2023-01-31T12:16:37;99947.18;;;3.57;100.00
36972;BME280;40554;52.122;20.678;2023-01-31T12:24:35;99943.20;;;3.52;100.00
36972;BME280;40554;52.122;20.678;2023-01-31T12:32:16;99942.98;;;3.42;100.00
36972;BME280;40554;52.122;20.678;2023-01-31T12:48:11;99940.13;;;3.16;100.00
36972;BME280;40554;52.122;20.678;2023-01-31T12:50:31;99941.66;;;3.13;100.00
36972;BME280;40554;52.122;20.678;2023-01-31T12:57:51;99942.54;;;3.09;100.00
36972;BME280;40554;52.122;20.678;2023-01-31T13:00:20;99940.98;;;3.09;100.00
36972;BME280;40554;52.122;20.678;2023-01-31T13:02:56;99936.18;;;3.07;100.00
36972;BME280;40554;52.122;20.678;2023-01-31T13:05:30;99938.23;;;3.07;100.00
36972;BME280;40554;52.122;20.678;2023-01-31T13:10:32;99935.39;;;3.09;100.00
36972;BME280;40554;52.122;20.678;2023-01-31T13:12:50;99931.55;;;3.09;100.00
36972;BME280;40554;52.122;20.678;2023-01-31T13:15:18;99928.13;;;3.07;100.00
36972;BME280;40554;52.122;20.678;2023-01-31T13:17:38;99930.95;;;3.07;100.00
36972;BME280;40554;52.122;20.678;2023-01-31T13:20:22;99931.65;;;3.06;100.00
36972;BME280;40554;52.122;20.678;2023-01-31T13:22:47;99933.38;;;3.07;100.00
36972;BME280;40554;52.122;20.678;2023-01-31T13:25:20;99928.54;;;3.06;100.00
36972;BME280;40554;52.122;20.678;2023-01-31T13:27:42;99925.36;;;3.03;100.00
36972;BME280;40554;52.122;20.678;2023-01-31T13:30:02;99927.96;;;2.99;100.00
36972;BME280;40554;52.122;20.678;2023-01-31T13:32:36;99924.17;;;2.94;100.00
36972;BME280;40554;52.122;20.678;2023-01-31T13:35:23;99922.92;;;2.90;100.00
36972;BME280;40554;52.122;20.678;2023-01-31T13:37:43;99922.92;;;2.87;100.00
36972;BME280;40554;52.122;20.678;2023-01-31T13:40:08;99921.84;;;2.83;100.00
36972;BME280;40554;52.122;20.678;2023-01-31T13:42:31;99922.55;;;2.79;100.00
36972;BME280;40554;52.122;20.678;2023-01-31T13:44:48;99923.42;;;2.75;100.00